createdAt,value
2023-01-25T00:02:04.008Z,82.11
2023-01-25T00:07:07.174Z,82.09
2023-01-25T00:12:10.369Z,82.30
2023-01-25T00:17:13.596Z,82.58
2023-01-25T00:22:16.681Z,82.55
2023-01-25T00:27:19.788Z,82.40
2023-01-25T00:32:23.281Z,82.64
2023-01-25T00:37:44.688Z,82.71
2023-01-25T00:42:47.747Z,82.46
2023-01-25T00:47:56.457Z,82.45
2023-01-25T00:52:59.494Z,82.42
2023-01-25T00:58:02.705Z,82.18
2023-01-25T01:03:05.810Z,82.32
2023-01-25T01:08:09.010Z,82.63
2023-01-25T01:13:12.015Z,82.62
2023-01-25T01:18:15.328Z,82.68
2023-01-25T01:23:19.269Z,82.89
2023-01-25T01:28:22.569Z,82.89
2023-01-25T01:33:25.673Z,82.89
2023-01-25T01:38:28.975Z,82.71
2023-01-25T01:43:32.610Z,82.60
2023-01-25T01:48:47.888Z,82.54
2023-01-25T01:54:08.602Z,82.82
2023-01-25T01:59:13.294Z,82.97
2023-01-25T02:04:19.387Z,82.90
2023-01-25T02:09:26.330Z,82.86
2023-01-25T02:14:29.843Z,82.41
2023-01-25T02:19:59.170Z,82.48
2023-01-25T02:25:10.569Z,82.87
2023-01-25T02:30:14.280Z,82.96
2023-01-25T02:35:43.513Z,83.00
2023-01-25T02:40:54.821Z,82.93
2023-01-25T02:46:18.916Z,82.88
2023-01-25T02:51:26.197Z,82.65
2023-01-25T02:56:30.485Z,82.71
2023-01-25T03:01:35.965Z,82.69
2023-01-25T03:06:40.112Z,83.08
2023-01-25T03:11:43.230Z,83.10
2023-01-25T03:16:46.289Z,83.25
2023-01-25T03:21:49.453Z,83.31
2023-01-25T03:27:10.991Z,83.10
2023-01-25T03:32:14.459Z,82.94
2023-01-25T03:37:17.810Z,83.01
2023-01-25T03:42:22.461Z,83.11
2023-01-25T03:47:25.563Z,83.19
2023-01-25T03:52:30.316Z,83.38
2023-01-25T03:57:33.515Z,83.32
2023-01-25T04:02:36.641Z,83.43
2023-01-25T04:07:40.353Z,83.68
2023-01-25T04:12:43.449Z,83.72
2023-01-25T04:17:46.455Z,83.81
2023-01-25T04:22:49.695Z,83.81
2023-01-25T04:27:52.973Z,83.92
2023-01-25T04:32:56.077Z,84.08
2023-01-25T04:38:00.364Z,84.07
2023-01-25T04:43:03.735Z,84.05
2023-01-25T04:48:11.197Z,84.25
2023-01-25T04:53:14.445Z,84.06
2023-01-25T04:58:17.590Z,84.01
2023-01-25T05:03:20.680Z,83.73
2023-01-25T05:08:23.811Z,83.82
2023-01-25T05:13:26.983Z,84.07
2023-01-25T05:18:42.645Z,84.38
2023-01-25T05:23:50.528Z,84.19
2023-01-25T05:28:53.801Z,84.09
2023-01-25T05:33:56.904Z,84.19
2023-01-25T05:39:00.009Z,84.25
2023-01-25T05:44:04.309Z,84.26
2023-01-25T05:49:07.865Z,84.54
2023-01-25T05:54:18.073Z,84.37
2023-01-25T05:59:21.243Z,84.29
2023-01-25T06:04:24.496Z,84.04
2023-01-25T06:09:27.756Z,84.30
2023-01-25T06:14:30.816Z,84.38
2023-01-25T06:19:34.179Z,84.64
2023-01-25T06:24:37.319Z,84.60
2023-01-25T06:29:40.606Z,84.50
2023-01-25T06:34:43.939Z,84.34
2023-01-25T06:39:47.118Z,84.40
2023-01-25T06:44:50.235Z,84.58
2023-01-25T06:49:53.447Z,84.57
2023-01-25T06:54:56.752Z,84.54
2023-01-25T07:00:00.673Z,84.68
2023-01-25T07:05:04.697Z,84.77
2023-01-25T07:10:08.969Z,84.69
2023-01-25T07:15:12.256Z,84.82
2023-01-25T07:20:16.351Z,84.72
2023-01-25T07:25:19.499Z,84.56
2023-01-25T07:30:22.790Z,84.38
2023-01-25T07:35:25.923Z,84.24
2023-01-25T07:40:28.999Z,84.18
2023-01-25T07:45:32.257Z,84.12
2023-01-25T07:50:35.337Z,84.13
2023-01-25T07:55:38.515Z,84.13
2023-01-25T08:00:41.730Z,84.13
2023-01-25T08:05:45.489Z,84.15
2023-01-25T08:10:48.552Z,83.91
2023-01-25T08:15:56.272Z,83.60
2023-01-25T08:21:00.713Z,83.85
2023-01-25T08:26:05.910Z,83.90
2023-01-25T08:31:19.662Z,83.92
2023-01-25T08:36:28.015Z,83.93
2023-01-25T08:41:32.966Z,83.77
2023-01-25T08:46:36.121Z,83.68
2023-01-25T08:51:39.534Z,83.39
2023-01-25T08:56:43.163Z,83.25
2023-01-25T09:01:46.344Z,83.30
2023-01-25T09:06:49.864Z,83.33
2023-01-25T09:11:52.968Z,83.04
2023-01-25T09:16:56.076Z,83.19
2023-01-25T09:21:59.287Z,83.43
2023-01-25T09:27:02.491Z,83.07
2023-01-25T09:32:05.583Z,83.26
2023-01-25T09:37:09.034Z,82.97
2023-01-25T09:42:25.034Z,83.07
2023-01-25T09:53:58.784Z,82.71
2023-01-25T09:59:19.889Z,82.69
2023-01-25T10:04:35.230Z,82.51
2023-01-25T10:09:54.595Z,82.31
2023-01-25T10:14:57.809Z,82.12
2023-01-25T10:20:21.704Z,82.44
2023-01-25T10:25:36.395Z,82.32
2023-01-25T10:31:03.655Z,82.15
2023-01-25T10:36:13.317Z,81.95
2023-01-25T10:41:28.617Z,81.79
2023-01-25T10:46:32.145Z,82.01
2023-01-25T10:51:35.731Z,82.28
2023-01-25T10:56:40.377Z,81.94
2023-01-25T11:01:44.046Z,81.86
2023-01-25T11:06:51.515Z,82.11
2023-01-25T11:12:11.714Z,82.02
2023-01-25T11:17:32.533Z,81.79
2023-01-25T11:22:35.631Z,81.86
2023-01-25T11:27:38.945Z,81.69
2023-01-25T11:32:42.259Z,81.57
2023-01-25T11:38:16.442Z,81.12
2023-01-25T11:43:38.786Z,80.39
2023-01-25T11:48:57.943Z,80.49
2023-01-25T11:54:42.006Z,80.99
2023-01-25T12:00:18.998Z,81.00
2023-01-25T12:05:24.988Z,80.39
2023-01-25T12:11:00.948Z,80.58
2023-01-25T12:16:25.386Z,80.78
2023-01-25T12:21:53.466Z,81.04
2023-01-25T12:27:30.549Z,80.93
2023-01-25T12:32:37.365Z,80.66
2023-01-25T12:37:43.899Z,80.86
2023-01-25T12:43:01.672Z,81.32
2023-01-25T12:48:29.159Z,81.62
2023-01-25T12:53:47.432Z,81.50
2023-01-25T12:59:00.561Z,81.35
2023-01-25T13:04:24.860Z,81.14
2023-01-25T13:09:35.963Z,81.31
2023-01-25T13:14:41.578Z,81.44
2023-01-25T13:19:44.731Z,81.81
2023-01-25T13:25:03.300Z,81.93
2023-01-25T13:30:24.748Z,82.09
2023-01-25T13:35:32.906Z,82.16
2023-01-25T13:40:38.900Z,81.85
2023-01-25T13:45:43.928Z,81.82
2023-01-25T13:51:01.226Z,81.88
2023-01-25T13:56:04.537Z,82.01
2023-01-25T14:01:17.334Z,82.26
2023-01-25T14:06:36.770Z,82.41
2023-01-25T14:11:50.124Z,82.47
2023-01-25T14:17:19.224Z,82.73
2023-01-25T14:22:27.384Z,83.05
2023-01-25T14:27:31.065Z,83.19
2023-01-25T14:32:34.273Z,83.43
2023-01-25T14:37:42.810Z,83.44
2023-01-25T14:42:46.236Z,83.43
2023-01-25T14:47:59.050Z,83.49
2023-01-25T14:53:25.303Z,83.61
2023-01-25T14:58:31.792Z,83.80
2023-01-25T15:03:34.904Z,84.01
2023-01-25T15:08:40.970Z,84.24
2023-01-25T15:13:44.753Z,84.43
2023-01-25T15:18:54.173Z,84.46
2023-01-25T15:24:05.030Z,84.54
2023-01-25T15:29:16.298Z,84.43
2023-01-25T15:34:25.537Z,84.19
2023-01-25T15:39:29.204Z,84.18
2023-01-25T15:44:32.514Z,84.14
2023-01-25T15:49:39.661Z,84.31
2023-01-25T15:54:51.792Z,84.46
2023-01-25T15:59:57.398Z,84.53
2023-01-25T16:05:00.628Z,84.47
2023-01-25T16:10:04.734Z,84.40
2023-01-25T16:15:09.042Z,84.46
2023-01-25T16:20:22.327Z,84.46
2023-01-25T16:25:25.452Z,84.79
2023-01-25T16:30:31.298Z,84.89
2023-01-25T16:35:34.434Z,85.11
2023-01-25T16:40:39.915Z,85.22
2023-01-25T16:45:43.291Z,85.25
2023-01-25T16:50:49.259Z,85.25
2023-01-25T16:55:52.567Z,85.25
2023-01-25T17:00:55.810Z,85.13
2023-01-25T17:06:00.223Z,85.20
2023-01-25T17:11:07.419Z,85.06
2023-01-25T17:16:10.675Z,85.27
2023-01-25T17:21:16.985Z,85.38
2023-01-25T17:26:22.126Z,85.42
2023-01-25T17:31:29.505Z,85.44
2023-01-25T17:36:32.913Z,85.38
2023-01-25T17:41:36.694Z,85.54
2023-01-25T17:46:40.548Z,85.51
2023-01-25T17:51:45.382Z,85.39
2023-01-25T17:56:49.701Z,85.46
2023-01-25T18:01:53.040Z,85.51
2023-01-25T18:06:56.226Z,85.64
2023-01-25T18:11:59.441Z,85.75
2023-01-25T18:17:02.639Z,85.67
2023-01-25T18:22:05.958Z,85.54
2023-01-25T18:27:25.264Z,85.54
2023-01-25T18:32:32.889Z,85.60
2023-01-25T18:37:44.036Z,85.79
2023-01-25T18:42:47.553Z,85.96
2023-01-25T18:47:51.376Z,86.01
2023-01-25T18:52:55.931Z,86.03
2023-01-25T18:58:04.152Z,86.09
2023-01-25T19:03:07.615Z,85.98
2023-01-25T19:24:58.187Z,85.03
2023-01-25T19:30:01.649Z,85.27
2023-01-25T19:35:08.996Z,85.26
2023-01-25T19:40:13.729Z,85.33
2023-01-25T19:45:16.867Z,85.27
2023-01-25T19:50:19.961Z,85.41
2023-01-25T19:55:23.476Z,85.59
2023-01-25T20:00:27.605Z,85.72
2023-01-25T20:05:30.771Z,85.97
2023-01-25T20:10:34.742Z,86.01
2023-01-25T20:15:38.092Z,86.07
2023-01-25T20:20:41.163Z,86.11
2023-01-25T20:25:44.369Z,86.22
2023-01-25T20:30:47.502Z,86.29
2023-01-25T20:35:50.791Z,86.34
2023-01-25T20:41:09.458Z,86.58
2023-01-25T20:46:12.595Z,86.64
2023-01-25T20:51:21.674Z,86.64
2023-01-25T20:56:25.840Z,86.41
2023-01-25T21:01:37.286Z,86.43
2023-01-25T21:06:42.196Z,86.42
2023-01-25T21:11:45.754Z,86.40
2023-01-25T21:16:48.920Z,86.58
2023-01-25T21:21:53.591Z,86.50
2023-01-25T21:26:57.179Z,86.33
2023-01-25T21:32:02.694Z,86.30
2023-01-25T21:37:05.952Z,86.47
2023-01-25T21:42:11.115Z,86.73
2023-01-25T21:47:29.320Z,86.69
2023-01-25T21:52:36.554Z,86.78
2023-01-25T21:57:47.013Z,86.57
2023-01-25T22:02:52.084Z,86.36
2023-01-25T22:07:55.512Z,86.38
2023-01-25T22:12:58.922Z,86.29
2023-01-25T22:18:02.645Z,86.27
2023-01-25T22:23:07.285Z,86.26
2023-01-25T22:28:15.503Z,86.44
2023-01-25T22:33:22.000Z,86.60
2023-01-25T22:38:26.320Z,86.68
2023-01-25T22:43:32.591Z,86.61
2023-01-25T22:48:37.085Z,86.63
2023-01-25T22:53:41.175Z,86.68
2023-01-25T22:58:48.158Z,86.71
2023-01-25T23:03:53.925Z,86.79
2023-01-25T23:09:00.323Z,86.88
2023-01-25T23:14:31.801Z,87.14
2023-01-25T23:19:35.212Z,87.29
2023-01-25T23:24:39.146Z,87.21
2023-01-25T23:29:42.983Z,86.99
2023-01-25T23:34:53.335Z,86.83
2023-01-25T23:39:56.550Z,86.83
2023-01-25T23:45:00.176Z,86.99
2023-01-25T23:50:05.254Z,87.07
2023-01-25T23:55:09.349Z,87.16
